createdAt,value
2018-08-06T00:00:57.981Z,98073.95
2018-08-06T00:03:29.785Z,98074.93
2018-08-06T00:06:01.487Z,98072.27
2018-08-06T00:08:33.571Z,98067.66
2018-08-06T00:11:05.273Z,98076.98
2018-08-06T00:13:37.186Z,98080.97
2018-08-06T00:16:08.948Z,98079.31
2018-08-06T00:18:40.789Z,98079.81
2018-08-06T00:21:12.664Z,98082.80
2018-08-06T00:23:44.575Z,98086.66
2018-08-06T00:26:16.320Z,98087.66
2018-08-06T00:28:48.394Z,98086.33
2018-08-06T00:31:20.466Z,98086.33
2018-08-06T00:33:52.278Z,98089.50
2018-08-06T00:36:24.125Z,98099.64
2018-08-06T00:38:56.066Z,98104.47
2018-08-06T00:41:27.879Z,98104.64
2018-08-06T00:44:00.155Z,98112.45
2018-08-06T00:46:31.612Z,98115.95
2018-08-06T00:49:05.421Z,98110.18
2018-08-06T00:51:37.195Z,98117.45
2018-08-06T00:54:09.158Z,98117.95
2018-08-06T00:56:41.004Z,98119.82
2018-08-06T00:59:14.169Z,98115.00
2018-08-06T01:01:47.475Z,98114.77
2018-08-06T01:04:19.501Z,98128.44
2018-08-06T01:06:51.292Z,98123.76
2018-08-06T01:09:23.099Z,98128.73
2018-08-06T01:11:54.914Z,98131.69
2018-08-06T01:14:26.636Z,98134.34
2018-08-06T01:16:58.605Z,98134.05
2018-08-06T01:19:31.517Z,98136.72
2018-08-06T01:22:04.732Z,98141.00
2018-08-06T01:24:36.642Z,98146.33
2018-08-06T01:27:08.325Z,98151.66
2018-08-06T01:29:40.321Z,98156.36
2018-08-06T01:32:12.026Z,98156.98
2018-08-06T01:34:44.033Z,98155.85
2018-08-06T01:37:15.753Z,98160.67
2018-08-06T01:39:47.589Z,98161.69
2018-08-06T01:42:19.474Z,98159.84
2018-08-06T01:44:51.139Z,98164.34
2018-08-06T01:47:24.775Z,98164.02
2018-08-06T01:49:56.540Z,98172.00
2018-08-06T01:52:28.574Z,98168.02
2018-08-06T01:55:00.546Z,98173.16
2018-08-06T01:57:32.373Z,98178.16
2018-08-06T02:00:05.005Z,98183.98
2018-08-06T02:02:36.857Z,98187.98
2018-08-06T02:05:09.706Z,98185.31
2018-08-06T02:07:41.932Z,98195.28
2018-08-06T02:10:15.687Z,98192.63
2018-08-06T02:12:47.340Z,98195.97
2018-08-06T02:15:18.996Z,98198.45
2018-08-06T02:17:50.463Z,98195.79
2018-08-06T02:20:22.622Z,98197.30
2018-08-06T02:22:54.362Z,98199.63
2018-08-06T02:25:26.417Z,98203.13
2018-08-06T02:27:58.236Z,98207.11
2018-08-06T02:30:30.545Z,98201.79
2018-08-06T02:33:02.302Z,98202.63
2018-08-06T02:35:34.111Z,98202.30
2018-08-06T02:38:05.981Z,98205.45
2018-08-06T02:40:38.081Z,98207.44
2018-08-06T02:43:10.132Z,98203.78
2018-08-06T02:45:42.540Z,98209.93
2018-08-06T02:48:15.837Z,98206.61
2018-08-06T02:50:47.734Z,98217.59
2018-08-06T02:53:19.335Z,98214.60
2018-08-06T02:55:51.303Z,98217.59
2018-08-06T02:58:22.835Z,98215.25
2018-08-06T03:00:57.384Z,98220.25
2018-08-06T03:03:36.997Z,98223.24
2018-08-06T03:06:09.349Z,98236.84
2018-08-06T03:08:42.234Z,98227.23
2018-08-06T03:11:14.129Z,98232.25
2018-08-06T03:13:45.886Z,98231.23
2018-08-06T03:16:17.545Z,98232.73
2018-08-06T03:18:49.389Z,98232.06
2018-08-06T03:21:21.506Z,98241.88
2018-08-06T03:23:53.209Z,98240.55
2018-08-06T03:26:25.174Z,98243.21
2018-08-06T03:28:59.790Z,98236.12
2018-08-06T03:31:32.210Z,98240.89
2018-08-06T03:34:04.297Z,98240.89
2018-08-06T03:36:36.448Z,98246.05
2018-08-06T03:39:11.642Z,98245.88
2018-08-06T03:41:43.417Z,98245.37
2018-08-06T03:44:14.728Z,98243.83
2018-08-06T03:46:47.767Z,98242.66
2018-08-06T03:49:21.117Z,98247.15
2018-08-06T03:51:52.981Z,98249.13
2018-08-06T03:54:25.080Z,98247.48
2018-08-06T03:56:58.218Z,98246.64
2018-08-06T03:59:30.809Z,98249.46
2018-08-06T04:02:03.444Z,98251.41
2018-08-06T04:04:35.416Z,98251.09
2018-08-06T04:07:07.326Z,98252.95
2018-08-06T04:09:39.506Z,98256.81
2018-08-06T04:12:11.418Z,98259.45
2018-08-06T04:14:44.489Z,98261.47
2018-08-06T04:17:17.519Z,98266.44
2018-08-06T04:19:50.274Z,98267.27
2018-08-06T04:22:22.543Z,98267.52
2018-08-06T04:24:54.857Z,98262.54
2018-08-06T04:27:29.650Z,98267.89
2018-08-06T04:30:02.418Z,98267.34
2018-08-06T04:32:34.370Z,98264.01
2018-08-06T04:35:11.909Z,98267.87
2018-08-06T04:37:46.735Z,98265.61
2018-08-06T04:40:20.288Z,98259.64
2018-08-06T04:42:52.494Z,98264.94
2018-08-06T04:45:24.020Z,98261.39
2018-08-06T04:47:56.910Z,98275.92
2018-08-06T04:50:29.682Z,98268.26
2018-08-06T04:53:02.163Z,98267.84
2018-08-06T04:55:34.875Z,98270.72
2018-08-06T04:58:07.431Z,98266.03
2018-08-06T05:00:39.796Z,98267.28
2018-08-06T05:03:13.309Z,98270.72
2018-08-06T05:05:45.949Z,98264.26
2018-08-06T05:08:18.420Z,98263.52
2018-08-06T05:10:51.868Z,98267.34
2018-08-06T05:13:24.836Z,98259.20
2018-08-06T05:15:57.509Z,98258.69
2018-08-06T05:18:30.517Z,98253.80
2018-08-06T05:21:04.503Z,98247.05
2018-08-06T05:23:46.016Z,98249.19
2018-08-06T05:26:18.475Z,98237.91
2018-08-06T05:28:52.104Z,98239.47
2018-08-06T05:31:26.229Z,98246.28
2018-08-06T05:33:59.723Z,98246.97
2018-08-06T05:36:32.619Z,98247.87
2018-08-06T05:39:05.696Z,98247.73
2018-08-06T05:41:39.222Z,98249.97
2018-08-06T05:44:12.627Z,98246.61
2018-08-06T05:46:45.558Z,98246.61
2018-08-06T05:49:19.199Z,98239.23
2018-08-06T05:51:51.412Z,98243.88
2018-08-06T05:54:25.803Z,98238.55
2018-08-06T05:56:58.695Z,98238.40
2018-08-06T05:59:32.921Z,98239.52
2018-08-06T06:02:05.269Z,98237.03
2018-08-06T06:04:38.623Z,98240.84
2018-08-06T06:07:10.348Z,98233.10
2018-08-06T06:09:42.781Z,98230.36
2018-08-06T06:12:14.672Z,98237.28
2018-08-06T06:14:48.370Z,98228.02
2018-08-06T06:17:21.106Z,98229.36
2018-08-06T06:19:53.510Z,98225.03
2018-08-06T06:22:26.237Z,98225.68
2018-08-06T06:24:58.650Z,98216.30
2018-08-06T06:27:33.461Z,98213.43
2018-08-06T06:30:05.731Z,98208.66
2018-08-06T06:32:40.663Z,98214.69
2018-08-06T06:35:14.374Z,98204.59
2018-08-06T06:37:46.931Z,98201.20
2018-08-06T06:40:18.564Z,98202.33
2018-08-06T06:42:50.237Z,98204.59
2018-08-06T06:45:21.793Z,98201.72
2018-08-06T06:47:53.740Z,98193.48
2018-08-06T06:50:25.932Z,98195.95
2018-08-06T06:53:02.820Z,98186.55
2018-08-06T06:55:34.758Z,98181.22
2018-08-06T06:58:09.277Z,98175.75
2018-08-06T07:00:42.151Z,98175.64
2018-08-06T07:03:14.428Z,98172.14
2018-08-06T07:05:46.821Z,98176.65
2018-08-06T07:08:20.784Z,98165.98
2018-08-06T07:10:52.346Z,98165.34
2018-08-06T07:13:24.089Z,98159.32
2018-08-06T07:15:56.534Z,98155.65
2018-08-06T07:18:29.472Z,98147.65
2018-08-06T07:21:01.612Z,98146.82
2018-08-06T07:23:33.393Z,98147.25
2018-08-06T07:26:05.445Z,98139.47
2018-08-06T07:28:37.145Z,98140.66
2018-08-06T07:31:11.123Z,98143.33
2018-08-06T07:33:45.325Z,98142.42
2018-08-06T07:36:17.918Z,98141.30
2018-08-06T07:38:50.646Z,98147.33
2018-08-06T07:41:22.997Z,98143.33
2018-08-06T07:43:55.433Z,98142.42
2018-08-06T07:46:28.304Z,98138.97
2018-08-06T07:49:00.142Z,98136.98
2018-08-06T07:51:32.141Z,98136.98
2018-08-06T07:54:04.258Z,98128.16
2018-08-06T07:56:36.470Z,98124.67
2018-08-06T07:59:08.132Z,98131.39
2018-08-06T08:01:39.980Z,98123.91
2018-08-06T08:04:11.901Z,98123.26
2018-08-06T08:06:44.759Z,98117.64
2018-08-06T08:09:16.687Z,98118.25
2018-08-06T08:11:49.430Z,98115.08
2018-08-06T08:14:21.576Z,98108.23
2018-08-06T08:16:53.500Z,98108.55
2018-08-06T08:19:25.389Z,98101.70
2018-08-06T08:21:58.022Z,98100.23
2018-08-06T08:24:30.051Z,98095.22
2018-08-06T08:27:01.822Z,98084.05
2018-08-06T08:29:33.975Z,98079.22
2018-08-06T08:32:06.083Z,98078.21
2018-08-06T08:34:38.005Z,98075.04
2018-08-06T08:37:09.771Z,98074.21
2018-08-06T08:39:41.914Z,98065.81
2018-08-06T08:42:13.691Z,98059.14
2018-08-06T08:44:45.783Z,98056.48
2018-08-06T08:47:17.498Z,98052.30
2018-08-06T08:49:49.551Z,98049.77
2018-08-06T08:52:21.474Z,98052.11
2018-08-06T08:54:53.547Z,98052.43
2018-08-06T08:57:25.521Z,98054.78
2018-08-06T08:59:57.823Z,98045.77
2018-08-06T09:02:29.654Z,98038.27
2018-08-06T09:05:01.613Z,98041.13
2018-08-06T09:07:34.643Z,98035.47
2018-08-06T09:10:08.139Z,98033.77
2018-08-06T09:12:40.586Z,98028.86
2018-08-06T09:15:18.640Z,98028.34
2018-08-06T09:17:51.653Z,98027.66
2018-08-06T09:20:24.396Z,98024.16
2018-08-06T09:22:56.792Z,98015.34
2018-08-06T09:25:28.686Z,98019.02
2018-08-06T09:28:01.317Z,98022.00
2018-08-06T09:30:34.401Z,98012.98
2018-08-06T09:33:06.745Z,98002.96
2018-08-06T09:35:38.887Z,98003.47
2018-08-06T09:38:11.564Z,97999.25
2018-08-06T09:40:43.455Z,97996.91
2018-08-06T09:43:16.204Z,97990.74
2018-08-06T09:45:48.559Z,97996.58
2018-08-06T09:48:21.138Z,97998.23
2018-08-06T09:50:53.483Z,97995.56
2018-08-06T09:53:26.135Z,97986.23
2018-08-06T09:55:58.914Z,97990.55
2018-08-06T09:58:31.274Z,97987.47
2018-08-06T10:01:10.551Z,97987.57
2018-08-06T10:03:42.643Z,97986.05
2018-08-06T10:06:15.294Z,97979.06
2018-08-06T10:08:49.187Z,97984.30
2018-08-06T10:11:22.146Z,97983.89
2018-08-06T10:13:54.258Z,97984.90
2018-08-06T10:16:26.754Z,97976.12
2018-08-06T10:18:59.315Z,97979.84
2018-08-06T10:21:32.162Z,97972.99
2018-08-06T10:24:04.586Z,97977.31
2018-08-06T10:26:37.432Z,97978.83
2018-08-06T10:29:09.937Z,97983.02
2018-08-06T10:31:42.316Z,97984.54
2018-08-06T10:34:14.712Z,97986.38
2018-08-06T10:36:47.321Z,97996.12
2018-08-06T10:39:19.742Z,97987.11
2018-08-06T10:41:52.338Z,97998.14
2018-08-06T10:44:25.400Z,97995.48
2018-08-06T10:46:57.809Z,97989.32
2018-08-06T10:49:29.755Z,97984.49
2018-08-06T10:52:02.031Z,97986.66
2018-08-06T10:54:34.295Z,97982.84
2018-08-06T10:57:06.472Z,97984.81
2018-08-06T10:59:38.279Z,97980.81
2018-08-06T11:02:10.683Z,97975.16
2018-08-06T11:04:45.368Z,97978.15
2018-08-06T11:07:17.718Z,97975.16
2018-08-06T11:09:51.463Z,97972.81
2018-08-06T11:12:23.667Z,97975.16
2018-08-06T11:14:56.168Z,97975.16
2018-08-06T11:17:28.929Z,97979.98
2018-08-06T11:20:00.761Z,97982.47
2018-08-06T11:22:33.127Z,97978.15
2018-08-06T11:25:05.485Z,97982.14
2018-08-06T11:27:37.936Z,97977.83
2018-08-06T11:30:12.346Z,97982.14
2018-08-06T11:32:44.707Z,97985.64
2018-08-06T11:35:16.952Z,97989.13
2018-08-06T11:37:49.037Z,97994.97
2018-08-06T11:40:21.097Z,97989.13
2018-08-06T11:42:53.352Z,97994.47
2018-08-06T11:45:25.662Z,98006.78
2018-08-06T11:47:57.645Z,97991.80
2018-08-06T11:50:30.237Z,98001.45
2018-08-06T11:53:02.833Z,98003.10
2018-08-06T11:55:34.933Z,97997.77
2018-08-06T11:58:07.568Z,98001.05
2018-08-06T12:00:40.079Z,98002.38
2018-08-06T12:03:11.988Z,98003.71
2018-08-06T12:05:44.257Z,98001.05
2018-08-06T12:08:16.677Z,97993.36
2018-08-06T12:10:49.018Z,97993.88
2018-08-06T12:13:21.277Z,97998.70
2018-08-06T12:15:53.254Z,98010.51
2018-08-06T12:18:25.705Z,98008.86
2018-08-06T12:20:57.701Z,98008.86
2018-08-06T12:23:29.961Z,98011.02
2018-08-06T12:26:02.476Z,98018.00
2018-08-06T12:28:34.740Z,98018.00
2018-08-06T12:31:08.252Z,98019.34
2018-08-06T12:33:40.461Z,98021.50
2018-08-06T12:36:12.835Z,98019.02
2018-08-06T12:38:50.880Z,98030.42
2018-08-06T12:41:23.585Z,98033.36
2018-08-06T12:43:56.123Z,98035.02
2018-08-06T12:46:28.093Z,98042.78
2018-08-06T12:49:00.085Z,98046.14
2018-08-06T12:51:32.482Z,98050.78
2018-08-06T12:54:04.650Z,98056.75
2018-08-06T12:56:36.835Z,98054.08
2018-08-06T12:59:08.830Z,98060.03
2018-08-06T13:01:41.358Z,98057.55
2018-08-06T13:04:13.841Z,98058.37
2018-08-06T13:06:45.933Z,98059.42
2018-08-06T13:09:18.348Z,98065.36
2018-08-06T13:11:50.100Z,98061.05
2018-08-06T13:14:23.115Z,98065.36
2018-08-06T13:16:54.650Z,98065.04
2018-08-06T13:19:26.661Z,98069.36
2018-08-06T13:21:58.343Z,98076.34
2018-08-06T13:24:30.258Z,98083.52
2018-08-06T13:27:01.981Z,98084.34
2018-08-06T13:29:34.029Z,98081.12
2018-08-06T13:32:05.852Z,98084.43
2018-08-06T13:34:37.993Z,98086.77
2018-08-06T13:37:10.090Z,98086.45
2018-08-06T13:39:41.961Z,98098.59
2018-08-06T13:42:13.886Z,98096.94
2018-08-06T13:44:46.399Z,98100.61
2018-08-06T13:47:18.107Z,98100.10
2018-08-06T13:49:50.359Z,98102.08
2018-08-06T13:52:22.190Z,98110.37
2018-08-06T13:54:54.348Z,98121.44
2018-08-06T13:57:26.205Z,98128.10
2018-08-06T13:59:58.393Z,98138.12
2018-08-06T14:02:31.313Z,98141.98
2018-08-06T14:05:03.249Z,98142.13
2018-08-06T14:07:35.090Z,98146.30
2018-08-06T14:10:08.409Z,98149.62
2018-08-06T14:12:40.311Z,98154.45
2018-08-06T14:15:13.199Z,98161.75
2018-08-06T14:17:45.429Z,98153.09
2018-08-06T14:20:19.585Z,98156.36
2018-08-06T14:22:51.378Z,98161.11
2018-08-06T14:25:23.258Z,98158.08
2018-08-06T14:27:54.895Z,98158.08
2018-08-06T14:30:26.860Z,98166.27
2018-08-06T14:32:58.732Z,98174.27
2018-08-06T14:35:30.734Z,98183.70
2018-08-06T14:38:02.647Z,98188.74
2018-08-06T14:40:34.662Z,98194.37
2018-08-06T14:43:06.553Z,98199.20
2018-08-06T14:45:38.669Z,98202.08
2018-08-06T14:48:10.374Z,98191.09
2018-08-06T14:50:42.197Z,98198.26
2018-08-06T14:53:14.528Z,98199.77
2018-08-06T14:55:46.311Z,98201.11
2018-08-06T14:58:18.281Z,98207.45
2018-08-06T15:00:50.038Z,98208.13
2018-08-06T15:03:22.700Z,98207.45
2018-08-06T15:05:54.643Z,98212.78
2018-08-06T15:08:26.396Z,98221.11
2018-08-06T15:10:58.585Z,98217.61
2018-08-06T15:13:29.982Z,98226.12
2018-08-06T15:16:02.037Z,98221.79
2018-08-06T15:18:33.810Z,98226.63
2018-08-06T15:21:05.757Z,98231.77
2018-08-06T15:23:37.506Z,98225.28
2018-08-06T15:26:09.659Z,98225.47
2018-08-06T15:28:41.512Z,98230.87
2018-08-06T15:31:13.355Z,98237.53
2018-08-06T15:33:45.044Z,98241.17
2018-08-06T15:36:17.172Z,98243.88
2018-08-06T15:38:48.989Z,98257.20
2018-08-06T15:41:21.008Z,98254.54
2018-08-06T15:43:53.081Z,98260.20
2018-08-06T15:46:25.422Z,98270.36
2018-08-06T15:48:57.538Z,98273.86
2018-08-06T15:51:29.758Z,98277.34
2018-08-06T15:54:01.520Z,98271.69
2018-08-06T15:56:33.577Z,98275.19
2018-08-06T15:59:05.297Z,98285.67
2018-08-06T16:01:39.111Z,98289.85
2018-08-06T16:04:18.434Z,98290.17
2018-08-06T16:06:51.010Z,98294.36
2018-08-06T16:09:23.449Z,98294.36
2018-08-06T16:11:55.985Z,98297.85
2018-08-06T16:14:28.578Z,98299.18
2018-08-06T16:17:05.158Z,98298.03
2018-08-06T16:19:37.751Z,98297.34
2018-08-06T16:22:09.628Z,98299.69
2018-08-06T16:24:41.920Z,98287.83
2018-08-06T16:27:16.346Z,98289.34
2018-08-06T16:29:49.037Z,98290.86
2018-08-06T16:32:20.969Z,98286.36
2018-08-06T16:34:57.943Z,98285.85
2018-08-06T16:37:30.303Z,98279.19
2018-08-06T16:40:02.478Z,98280.84
2018-08-06T16:42:35.108Z,98281.67
2018-08-06T16:45:08.194Z,98274.17
2018-08-06T16:47:40.583Z,98264.84
2018-08-06T16:50:14.426Z,98273.67
2018-08-06T16:52:47.829Z,98273.17
2018-08-06T16:55:20.286Z,98278.50
2018-08-06T16:57:53.371Z,98282.50
2018-08-06T17:00:25.800Z,98283.51
2018-08-06T17:05:36.071Z,98272.63
2018-08-06T17:08:08.568Z,98267.30
2018-08-06T17:10:40.473Z,98275.83
2018-08-06T17:13:12.362Z,98263.52
2018-08-06T17:15:45.405Z,98259.84
2018-08-06T17:18:17.419Z,98263.84
2018-08-06T17:20:50.234Z,98261.35
2018-08-06T17:23:22.471Z,98262.50
2018-08-06T17:25:54.705Z,98259.84
2018-08-06T17:28:26.900Z,98255.30
2018-08-06T17:30:59.517Z,98248.64
2018-08-06T17:36:13.402Z,98254.80
2018-08-06T17:38:50.238Z,98251.12
2018-08-06T17:41:23.115Z,98254.50
2018-08-06T17:43:55.065Z,98251.52
2018-08-06T17:46:27.286Z,98253.17
2018-08-06T17:49:00.072Z,98252.64
2018-08-06T17:51:31.982Z,98253.17
2018-08-06T17:54:04.071Z,98246.36
2018-08-06T17:56:35.785Z,98245.53
2018-08-06T17:59:07.742Z,98241.03
2018-08-06T18:01:39.802Z,98243.19
2018-08-06T18:35:55.969Z,98225.32
2018-08-06T18:38:29.060Z,98215.81
2018-08-06T18:41:02.065Z,98216.13
2018-08-06T18:43:35.399Z,98216.13
2018-08-06T18:46:07.197Z,98215.13
2018-08-06T18:48:39.362Z,98215.23
2018-08-06T18:51:11.431Z,98213.28
2018-08-06T18:53:43.345Z,98210.30
2018-08-06T18:56:14.936Z,98211.81
2018-08-06T18:58:46.671Z,98217.21
2018-08-06T19:01:18.487Z,98204.06
2018-08-06T19:03:50.277Z,98205.00
2018-08-06T19:06:23.152Z,98201.33
2018-08-06T19:11:36.950Z,98193.15
2018-08-06T19:14:13.682Z,98186.81
2018-08-06T19:16:45.673Z,98181.48
2018-08-06T19:19:24.021Z,98178.99
2018-08-06T19:21:57.059Z,98178.99
2018-08-06T19:24:38.423Z,98169.34
2018-08-06T19:27:10.689Z,98169.16
2018-08-06T19:29:43.672Z,98157.67
2018-08-06T19:32:15.877Z,98158.49
2018-08-06T19:34:47.947Z,98148.34
2018-08-06T19:37:25.116Z,98151.51
2018-08-06T19:39:57.960Z,98152.52
2018-08-06T19:42:34.270Z,98148.02
2018-08-06T19:45:06.420Z,98144.02
2018-08-06T19:47:38.595Z,98141.86
2018-08-06T19:50:15.392Z,98137.03
2018-08-06T19:55:33.413Z,98133.67
2018-08-06T19:58:05.649Z,98122.37
2018-08-06T20:00:37.761Z,98126.37
2018-08-06T20:03:10.137Z,98119.70
2018-08-06T20:05:43.001Z,98114.37
2018-08-06T20:08:15.478Z,98112.72
2018-08-06T20:10:47.957Z,98121.03
2018-08-06T20:13:20.241Z,98115.38
2018-08-06T20:15:57.722Z,98110.87
2018-08-06T20:18:31.621Z,98106.59
2018-08-06T20:21:04.610Z,98106.05
2018-08-06T20:23:37.375Z,98105.76
2018-08-06T20:28:52.119Z,98101.44
2018-08-06T20:31:24.555Z,98096.43
2018-08-06T20:33:58.175Z,98094.27
2018-08-06T20:36:35.418Z,98090.78
2018-08-06T20:39:11.127Z,98085.45
2018-08-06T20:41:43.448Z,98080.44
2018-08-06T20:44:15.566Z,98080.11
2018-08-06T20:46:47.838Z,98081.77
2018-08-06T20:49:20.266Z,98065.45
2018-08-06T20:51:52.703Z,98070.78
2018-08-06T20:54:25.188Z,98061.45
2018-08-06T20:56:57.215Z,98062.47
2018-08-06T20:59:29.526Z,98069.45
2018-08-06T21:02:01.708Z,98073.45
2018-08-06T21:04:33.761Z,98070.97
2018-08-06T21:07:05.934Z,98061.45
2018-08-06T21:09:38.183Z,98052.13
2018-08-06T21:12:10.422Z,98048.31
2018-08-06T21:14:42.542Z,98048.31
2018-08-06T21:17:14.628Z,98043.99
2018-08-06T21:19:46.901Z,98040.64
2018-08-06T21:22:20.026Z,98037.47
2018-08-06T21:24:52.378Z,98045.65
2018-08-06T21:27:24.212Z,98044.31
2018-08-06T21:29:56.460Z,98042.16
2018-08-06T21:32:29.715Z,98043.81
2018-08-06T21:35:01.609Z,98038.66
2018-08-06T21:37:33.688Z,98041.01
2018-08-06T21:40:06.033Z,98036.50
2018-08-06T21:42:38.016Z,98043.16
2018-08-06T21:45:10.283Z,98037.84
2018-08-06T21:47:42.824Z,98033.73
2018-08-06T21:50:15.491Z,98031.86
2018-08-06T21:52:47.532Z,98030.53
2018-08-06T21:55:19.813Z,98031.36
2018-08-06T21:57:51.796Z,98032.69
2018-08-06T22:00:34.812Z,98034.02
2018-08-06T22:03:13.727Z,98031.58
2018-08-06T22:12:51.304Z,98034.89
2018-08-06T22:15:23.743Z,98041.09
2018-08-06T22:17:55.479Z,98043.56
2018-08-06T22:20:27.480Z,98045.19
2018-08-06T22:22:59.557Z,98042.23
2018-08-06T22:25:31.541Z,98046.89
2018-08-06T22:28:03.284Z,98044.73
2018-08-06T23:07:39.696Z,98069.30
2018-08-06T23:10:19.119Z,98075.13
2018-08-06T23:12:56.039Z,98081.80
2018-08-06T23:15:32.404Z,98077.30
2018-08-06T23:18:08.876Z,98081.98
2018-08-06T23:20:47.354Z,98078.30
2018-08-06T23:26:14.056Z,98088.64
2018-08-06T23:28:49.685Z,98093.32
2018-08-06T23:31:26.608Z,98093.32
2018-08-06T23:34:05.388Z,98097.64
2018-08-06T23:36:43.476Z,98104.98
2018-08-06T23:39:27.666Z,98105.31
2018-08-06T23:42:03.799Z,98105.31
2018-08-06T23:44:38.633Z,98105.82
2018-08-06T23:47:17.790Z,98111.66
2018-08-06T23:49:56.065Z,98103.66
2018-08-06T23:52:34.723Z,98105.50
2018-08-06T23:55:08.610Z,98105.50
2018-08-06T23:57:45.876Z,98105.50
